Time;durP1;ratioP1;P1;durP2;ratioP2;P2;SDS_P1;SDS_P2;PMS_P1;PMS_P2;Temp;Humidity;BMP_temperature;BMP_pressure;BME280_temperature;BME280_humidity;BME280_pressure;Samples;Min_cycle;Max_cycle;Signal;HPM_P1;HPM_P2
2023/08/11 00:00:33;;;;;;;;;;;17.20;99.90;;;;;;12493844;28;20024;-34
2023/08/11 00:06:35;;;;;;;;;;;17.10;99.90;;;;;;12486416;28;20546;-36
2023/08/11 00:12:37;;;;;;;;;;;17.10;99.90;;;;;;12485147;28;19955;-35
2023/08/11 00:18:39;;;;;;;;;;;17.00;99.90;;;;;;12489421;28;19932;-34
2023/08/11 00:24:41;;;;;;;;;;;16.80;99.90;;;;;;12459866;28;19964;-36
2023/08/11 00:30:43;;;;;;;;;;;16.70;99.90;;;;;;12499620;28;19959;-34
2023/08/11 00:36:45;;;;;;;;;;;16.70;99.90;;;;;;12482271;28;19978;-34
2023/08/11 00:42:49;;;;;;;;;;;16.60;99.90;;;;;;12477619;28;19978;-34
2023/08/11 00:48:51;;;;;;;;;;;16.60;99.90;;;;;;12495992;28;19929;-35
2023/08/11 00:54:53;;;;;;;;;;;16.60;99.90;;;;;;12495309;28;20114;-35
2023/08/11 01:00:56;;;;;;;;;;;16.60;99.90;;;;;;12501572;28;19929;-34
2023/08/11 01:07:07;;;;;;;;;;;16.60;99.90;;;;;;12503452;28;19933;-34
2023/08/11 01:13:17;;;;;;;;;;;16.80;99.90;;;;;;12501976;28;19936;-34
2023/08/11 01:19:31;;;;;;;;;;;16.50;99.90;;;;;;12484570;28;20279;-36
2023/08/11 01:25:33;;;;;;;;;;;16.50;99.90;;;;;;12495895;28;19932;-35
2023/08/11 01:31:35;;;;;;;;;;;16.50;99.90;;;;;;12487599;28;19925;-34
2023/08/11 01:37:37;;;;;;;;;;;16.40;99.90;;;;;;12485492;28;20410;-34
2023/08/11 01:43:39;;;;;;;;;;;16.40;99.90;;;;;;12491631;28;19957;-34
2023/08/11 01:49:41;;;;;;;;;;;16.30;99.90;;;;;;12489375;28;20605;-35
2023/08/11 01:55:44;;;;;;;;;;;16.30;99.90;;;;;;12499794;28;20364;-34
2023/08/11 02:01:46;;;;;;;;;;;16.20;99.90;;;;;;12490616;28;19925;-34
2023/08/11 02:07:48;;;;;;;;;;;16.10;99.90;;;;;;12490165;28;20335;-34
2023/08/11 02:13:50;;;;;;;;;;;16.10;99.90;;;;;;12496167;28;19925;-34
2023/08/11 02:19:53;;;;;;;;;;;15.80;99.90;;;;;;12489717;28;19932;-34
2023/08/11 02:25:54;;;;;;;;;;;15.60;99.90;;;;;;12495710;28;19936;-34
2023/08/11 02:31:56;;;;;;;;;;;15.70;99.90;;;;;;12508664;28;19924;-35
2023/08/11 02:37:58;;;;;;;;;;;15.60;99.90;;;;;;12513394;28;19960;-34
2023/08/11 02:44:00;;;;;;;;;;;15.50;99.90;;;;;;12505384;28;19972;-34
2023/08/11 02:50:05;;;;;;;;;;;15.50;99.90;;;;;;12508094;28;19933;-34
2023/08/11 02:56:09;;;;;;;;;;;15.70;99.90;;;;;;12502113;28;19979;-35
2023/08/11 03:02:11;;;;;;;;;;;15.60;99.90;;;;;;12513708;28;20015;-34
2023/08/11 03:08:12;;;;;;;;;;;15.70;99.90;;;;;;12505972;28;19936;-34
2023/08/11 03:14:14;;;;;;;;;;;15.50;99.90;;;;;;12505558;28;20051;-34
2023/08/11 03:20:16;;;;;;;;;;;15.40;99.90;;;;;;12508283;28;19971;-34
2023/08/11 03:26:18;;;;;;;;;;;15.30;99.90;;;;;;12511970;28;19950;-35
2023/08/11 03:32:20;;;;;;;;;;;15.10;99.90;;;;;;12507511;28;20016;-34
2023/08/11 03:38:21;;;;;;;;;;;15.20;99.90;;;;;;12499087;28;19933;-34
2023/08/11 03:44:24;;;;;;;;;;;15.20;99.90;;;;;;12505701;28;19928;-34
2023/08/11 03:50:26;;;;;;;;;;;15.20;99.90;;;;;;12501817;28;19972;-34
2023/08/11 03:56:28;;;;;;;;;;;15.20;99.90;;;;;;12508287;28;20016;-35
2023/08/11 04:02:30;;;;;;;;;;;15.30;99.90;;;;;;12506969;28;20413;-34
2023/08/11 04:08:31;;;;;;;;;;;15.20;99.90;;;;;;12513606;28;19940;-34
2023/08/11 04:14:33;;;;;;;;;;;15.10;99.90;;;;;;12512109;28;19975;-34
2023/08/11 04:20:36;;;;;;;;;;;15.10;99.90;;;;;;12504568;28;19929;-35
2023/08/11 04:26:38;;;;;;;;;;;15.40;99.90;;;;;;12507548;28;20020;-35
2023/08/11 04:32:40;;;;;;;;;;;15.40;99.90;;;;;;12503699;28;19928;-34
2023/08/11 04:38:41;;;;;;;;;;;15.50;99.90;;;;;;12499311;28;19929;-36
2023/08/11 04:44:43;;;;;;;;;;;15.50;99.90;;;;;;12508528;28;20326;-36
2023/08/11 04:50:52;;;;;;;;;;;15.40;99.90;;;;;;12503991;28;19924;-36
2023/08/11 04:56:53;;;;;;;;;;;15.30;99.90;;;;;;12515502;28;19935;-36
2023/08/11 05:02:56;;;;;;;;;;;16.00;99.90;;;;;;12496525;28;20027;-36
2023/08/11 05:08:58;;;;;;;;;;;18.20;99.90;;;;;;12503994;28;20259;-36
2023/08/11 05:14:59;;;;;;;;;;;19.10;99.90;;;;;;12497647;28;20551;-37
2023/08/11 05:21:01;;;;;;;;;;;18.90;99.90;;;;;;12501254;28;20420;-36
2023/08/11 05:27:03;;;;;;;;;;;18.30;99.90;;;;;;12503611;28;20015;-36
2023/08/11 05:33:05;;;;;;;;;;;17.90;99.90;;;;;;12497493;28;19975;-37
2023/08/11 05:39:08;;;;;;;;;;;17.50;99.90;;;;;;12508514;28;19964;-36
2023/08/11 05:45:10;;;;;;;;;;;17.10;99.90;;;;;;12502147;28;20292;-36
2023/08/11 05:51:11;;;;;;;;;;;16.90;99.90;;;;;;12506191;28;19929;-36
2023/08/11 05:57:13;;;;;;;;;;;16.10;99.90;;;;;;12504437;28;19939;-36
2023/08/11 06:03:15;;;;;;;;;;;16.40;99.90;;;;;;12505131;28;20215;-36
2023/08/11 06:09:17;;;;;;;;;;;16.60;99.90;;;;;;12487680;28;20059;-37
2023/08/11 06:15:18;;;;;;;;;;;16.70;99.90;;;;;;12491798;28;20392;-36
2023/08/11 06:21:20;;;;;;;;;;;16.60;99.90;;;;;;12475356;28;20335;-36
2023/08/11 06:27:22;;;;;;;;;;;16.70;99.90;;;;;;12498863;28;20011;-36
2023/08/11 06:33:23;;;;;;;;;;;16.80;99.90;;;;;;12492276;28;20924;-36
2023/08/11 06:39:25;;;;;;;;;;;17.10;99.90;;;;;;12488766;28;19933;-37
2023/08/11 06:45:27;;;;;;;;;;;17.70;99.90;;;;;;12475984;28;19925;-37
2023/08/11 06:51:28;;;;;;;;;;;18.00;99.90;;;;;;12476698;28;20321;-37
2023/08/11 06:57:30;;;;;;;;;;;18.40;99.90;;;;;;12489091;28;19933;-37
2023/08/11 07:03:33;;;;;;;;;;;18.50;99.90;;;;;;12484193;28;19932;-37
2023/08/11 07:09:35;;;;;;;;;;;18.80;99.90;;;;;;12497592;28;19925;-37
2023/08/11 07:15:40;;;;;;;;;;;19.10;99.90;;;;;;12500491;28;20454;-37
2023/08/11 07:21:42;;;;;;;;;;;19.20;99.90;;;;;;12487840;28;19925;-38
2023/08/11 07:27:43;;;;;;;;;;;19.40;99.90;;;;;;12478023;28;20035;-35
2023/08/11 07:33:45;;;;;;;;;;;19.60;99.90;;;;;;12500189;28;19925;-36
2023/08/11 07:39:47;;;;;;;;;;;19.70;99.90;;;;;;12502153;28;19986;-35
2023/08/11 07:45:48;;;;;;;;;;;19.90;99.90;;;;;;12501814;28;19932;-35
2023/08/11 07:51:50;;;;;;;;;;;20.00;99.90;;;;;;12505960;28;19929;-35
2023/08/11 07:57:52;;;;;;;;;;;20.00;99.90;;;;;;12511609;28;20023;-35
2023/08/11 08:03:54;;;;;;;;;;;20.10;99.90;;;;;;12502521;28;19936;-35
2023/08/11 08:09:55;;;;;;;;;;;20.10;99.90;;;;;;12507868;28;20410;-36
2023/08/11 08:15:58;;;;;;;;;;;20.30;99.90;;;;;;12500945;28;19925;-35
2023/08/11 08:21:59;;;;;;;;;;;20.50;99.90;;;;;;12509382;28;19929;-35
2023/08/11 08:28:01;;;;;;;;;;;20.60;99.90;;;;;;12505245;28;19928;-36
2023/08/11 08:34:07;;;;;;;;;;;20.70;99.90;;;;;;12509246;28;20300;-37
2023/08/11 08:40:09;;;;;;;;;;;20.90;99.90;;;;;;12509321;28;20389;-35
2023/08/11 08:46:11;;;;;;;;;;;21.00;99.90;;;;;;12497396;28;20448;-36
2023/08/11 08:52:13;;;;;;;;;;;21.30;99.90;;;;;;12496401;28;19935;-35
2023/08/11 08:58:16;;;;;;;;;;;21.50;99.90;;;;;;12508941;28;19925;-35
2023/08/11 09:04:18;;;;;;;;;;;21.60;99.90;;;;;;12515640;28;19925;-35
2023/08/11 09:10:21;;;;;;;;;;;21.80;99.90;;;;;;12505782;28;19940;-36
2023/08/11 09:16:23;;;;;;;;;;;22.10;99.90;;;;;;12507707;28;19956;-36
2023/08/11 09:22:25;;;;;;;;;;;22.40;99.90;;;;;;12501457;28;19933;-35
2023/08/11 09:28:27;;;;;;;;;;;22.70;99.90;;;;;;12511100;28;20388;-36
2023/08/11 09:34:29;;;;;;;;;;;23.10;99.90;;;;;;12499797;28;19925;-36
2023/08/11 09:40:31;;;;;;;;;;;23.30;99.90;;;;;;12485177;28;20104;-36
2023/08/11 09:46:35;;;;;;;;;;;23.70;99.90;;;;;;12500335;28;19929;-36
2023/08/11 09:52:37;;;;;;;;;;;24.00;99.90;;;;;;12496739;28;20032;-36
2023/08/11 09:58:39;;;;;;;;;;;24.30;99.90;;;;;;12504664;28;20040;-35
2023/08/11 10:04:56;;;;;;;;;;;24.60;99.90;;;;;;12517177;28;20015;-37
2023/08/11 10:10:59;;;;;;;;;;;24.70;99.90;;;;;;12515211;28;20289;-35
2023/08/11 10:17:01;;;;;;;;;;;25.10;99.90;;;;;;12515451;28;19956;-35
2023/08/11 10:23:03;;;;;;;;;;;25.10;99.90;;;;;;12515355;28;19972;-35
2023/08/11 10:29:05;;;;;;;;;;;25.30;99.90;;;;;;12509536;28;21389;-35
2023/08/11 10:35:07;;;;;;;;;;;25.60;99.90;;;;;;12517730;28;20047;-36
2023/08/11 10:41:09;;;;;;;;;;;25.70;99.90;;;;;;12512850;28;19939;-35
2023/08/11 10:47:11;;;;;;;;;;;25.90;99.90;;;;;;12508114;28;19979;-35
2023/08/11 10:53:19;;;;;;;;;;;26.00;99.90;;;;;;12512572;28;19964;-35
2023/08/11 10:59:21;;;;;;;;;;;25.90;99.90;;;;;;12515199;28;19961;-35
2023/08/11 11:05:23;;;;;;;;;;;26.10;99.90;;;;;;12498281;28;20463;-35
2023/08/11 11:11:25;;;;;;;;;;;26.20;99.90;;;;;;12403339;28;19933;-36
2023/08/11 11:17:26;;;;;;;;;;;26.50;99.90;;;;;;12489445;28;19925;-35
2023/08/11 11:23:28;;;;;;;;;;;26.50;99.90;;;;;;12516667;28;19925;-36
2023/08/11 11:29:31;;;;;;;;;;;26.70;99.90;;;;;;12454505;28;20387;-35
2023/08/11 11:35:33;;;;;;;;;;;26.70;99.90;;;;;;12410855;28;20104;-35
2023/08/11 11:41:35;;;;;;;;;;;26.90;99.90;;;;;;12502549;28;20407;-36
2023/08/11 11:47:37;;;;;;;;;;;27.10;99.90;;;;;;12514951;28;19955;-35
2023/08/11 11:53:39;;;;;;;;;;;27.20;99.90;;;;;;12463217;28;19925;-35
2023/08/11 11:59:41;;;;;;;;;;;27.40;99.90;;;;;;12482748;28;19977;-35
2023/08/11 12:05:43;;;;;;;;;;;27.40;99.90;;;;;;12481006;28;19935;-36
2023/08/11 12:11:45;;;;;;;;;;;27.40;99.90;;;;;;12500565;28;20280;-35
2023/08/11 12:17:48;;;;;;;;;;;27.40;99.90;;;;;;12524355;28;20016;-35
2023/08/11 12:23:59;;;;;;;;;;;27.40;99.90;;;;;;12501565;28;20924;-36
2023/08/11 12:36:46;;;;;;;;;;;27.40;99.90;;;;;;2303003;23;19928;-81
2023/08/11 12:42:48;;;;;;;;;;;27.50;99.90;;;;;;12571845;28;19928;-82
2023/08/11 13:16:26;;;;;;;;;;;27.70;99.90;;;;;;12641534;22;20402;-82
2023/08/11 13:22:28;;;;;;;;;;;27.80;99.90;;;;;;12567287;28;19936;-82
2023/08/11 13:28:30;;;;;;;;;;;27.80;99.90;;;;;;12589183;28;20007;-83
2023/08/11 13:34:31;;;;;;;;;;;27.70;99.90;;;;;;12582070;28;19932;-83
2023/08/11 13:40:33;;;;;;;;;;;27.70;99.90;;;;;;12588854;28;20075;-83
2023/08/11 13:46:37;;;;;;;;;;;27.70;99.90;;;;;;12564289;28;19939;-83
2023/08/11 13:52:39;;;;;;;;;;;27.70;99.90;;;;;;12542583;28;20387;-83
2023/08/11 13:58:41;;;;;;;;;;;27.80;99.90;;;;;;12555515;28;20143;-83
2023/08/11 14:04:43;;;;;;;;;;;27.60;99.90;;;;;;12551865;28;19925;-83
2023/08/11 14:10:47;;;;;;;;;;;27.50;99.90;;;;;;12540498;28;20002;-83
2023/08/11 14:16:49;;;;;;;;;;;27.70;99.90;;;;;;12519164;28;19936;-82
2023/08/11 14:22:50;;;;;;;;;;;27.80;99.90;;;;;;12524392;28;20016;-83
2023/08/11 14:28:52;;;;;;;;;;;27.90;99.90;;;;;;12536808;28;20031;-82
2023/08/11 14:34:54;;;;;;;;;;;27.90;99.90;;;;;;12545706;28;20368;-84
2023/08/11 14:40:56;;;;;;;;;;;28.00;99.90;;;;;;12536983;28;19968;-83
2023/08/11 14:46:59;;;;;;;;;;;28.10;99.90;;;;;;12544625;28;19968;-82
2023/08/11 14:53:01;;;;;;;;;;;28.00;99.90;;;;;;12559920;28;19924;-82
2023/08/11 14:59:03;;;;;;;;;;;28.10;99.90;;;;;;12557349;28;20392;-83
2023/08/11 15:05:05;;;;;;;;;;;28.30;99.90;;;;;;12571866;28;19925;-82
2023/08/11 15:11:07;;;;;;;;;;;28.30;99.90;;;;;;12535999;28;19976;-81
2023/08/11 15:17:09;;;;;;;;;;;28.40;99.90;;;;;;12552528;28;20046;-84
2023/08/11 15:23:10;;;;;;;;;;;28.40;99.90;;;;;;12551556;28;19948;-82
2023/08/11 15:29:12;;;;;;;;;;;28.50;99.90;;;;;;12538590;28;19925;-83
2023/08/11 15:35:16;;;;;;;;;;;28.50;99.90;;;;;;12568190;28;19974;-83
2023/08/11 15:41:18;;;;;;;;;;;28.50;99.90;;;;;;12570467;28;19937;-83
2023/08/11 15:47:20;;;;;;;;;;;28.40;99.90;;;;;;12541003;28;19946;-83
2023/08/11 15:53:22;;;;;;;;;;;28.10;99.90;;;;;;12542435;28;19928;-83
2023/08/11 15:59:24;;;;;;;;;;;28.00;99.90;;;;;;12558827;28;20150;-83
2023/08/11 16:05:25;;;;;;;;;;;28.10;99.90;;;;;;12558752;28;20382;-83
2023/08/11 16:11:27;;;;;;;;;;;28.10;99.90;;;;;;12546289;28;20012;-83
2023/08/11 16:17:29;;;;;;;;;;;28.20;99.90;;;;;;12526324;28;20434;-82
2023/08/11 16:23:31;;;;;;;;;;;28.10;99.90;;;;;;12554399;28;19925;-83
2023/08/11 16:29:40;;;;;;;;;;;28.00;99.90;;;;;;12537926;28;20201;-86
2023/08/11 16:35:42;;;;;;;;;;;28.00;99.90;;;;;;12530558;28;19925;-85
2023/08/11 16:41:44;;;;;;;;;;;27.80;99.90;;;;;;12543879;28;19955;-85
2023/08/11 16:47:45;;;;;;;;;;;27.60;99.90;;;;;;12558933;28;19925;-85
2023/08/11 16:53:47;;;;;;;;;;;27.50;99.90;;;;;;12537199;28;19936;-85
2023/08/11 16:59:49;;;;;;;;;;;27.30;99.90;;;;;;12542515;28;19929;-84
2023/08/11 17:05:51;;;;;;;;;;;26.90;99.90;;;;;;12526809;28;19978;-85
2023/08/11 17:11:53;;;;;;;;;;;26.70;99.90;;;;;;12551345;28;21212;-84
2023/08/11 17:17:55;;;;;;;;;;;26.60;99.90;;;;;;12562251;28;19939;-84
2023/08/11 17:23:56;;;;;;;;;;;26.60;99.90;;;;;;12537618;28;19924;-84
2023/08/11 17:29:58;;;;;;;;;;;26.50;99.90;;;;;;12558731;28;19929;-84
2023/08/11 17:36:00;;;;;;;;;;;26.40;99.90;;;;;;12554356;28;20291;-85
2023/08/11 17:42:04;;;;;;;;;;;26.50;99.90;;;;;;12553068;28;19931;-84
2023/08/11 17:48:06;;;;;;;;;;;26.90;99.90;;;;;;12548137;28;19925;-85
2023/08/11 17:54:08;;;;;;;;;;;27.10;99.90;;;;;;12531759;28;19936;-85
2023/08/11 18:00:13;;;;;;;;;;;26.80;99.90;;;;;;12542407;28;19968;-85
2023/08/11 18:06:15;;;;;;;;;;;26.50;99.90;;;;;;12552065;28;19929;-85
2023/08/11 18:12:17;;;;;;;;;;;26.10;99.90;;;;;;12535036;28;19936;-85
2023/08/11 18:18:19;;;;;;;;;;;25.80;99.90;;;;;;12542760;28;19968;-85
2023/08/11 18:24:21;;;;;;;;;;;25.50;99.90;;;;;;12536442;28;20384;-84
2023/08/11 18:30:22;;;;;;;;;;;25.30;99.90;;;;;;12543386;28;20062;-84
2023/08/11 18:36:24;;;;;;;;;;;25.00;99.90;;;;;;12544091;28;20305;-84
2023/08/11 18:42:26;;;;;;;;;;;24.80;99.90;;;;;;12549108;28;19924;-84
2023/08/11 18:48:28;;;;;;;;;;;24.40;99.90;;;;;;12535826;28;19932;-83
2023/08/11 18:54:30;;;;;;;;;;;24.20;99.90;;;;;;12550212;28;19960;-83
2023/08/11 19:00:32;;;;;;;;;;;23.70;99.90;;;;;;12554579;28;19972;-83
2023/08/11 19:06:35;;;;;;;;;;;23.20;99.90;;;;;;12561423;28;19940;-83
2023/08/11 19:12:37;;;;;;;;;;;22.90;99.90;;;;;;12545301;28;19925;-82
2023/08/11 19:18:39;;;;;;;;;;;23.00;99.90;;;;;;12555968;28;19937;-83
2023/08/11 19:24:41;;;;;;;;;;;22.90;99.90;;;;;;12557308;28;19929;-83
2023/08/11 19:30:43;;;;;;;;;;;22.70;99.90;;;;;;12541708;28;20407;-82
2023/08/11 19:36:45;;;;;;;;;;;22.60;99.90;;;;;;12557791;28;20346;-82
2023/08/11 19:42:46;;;;;;;;;;;21.90;99.90;;;;;;12543251;28;20307;-83
2023/08/11 19:48:48;;;;;;;;;;;21.50;99.90;;;;;;12561436;28;19964;-82
2023/08/11 19:54:50;;;;;;;;;;;21.40;99.90;;;;;;12557282;28;20451;-83
2023/08/11 20:00:52;;;;;;;;;;;21.20;99.90;;;;;;12545791;28;19925;-82
2023/08/11 20:06:54;;;;;;;;;;;21.50;99.90;;;;;;12558032;28;20369;-82
2023/08/11 20:12:55;;;;;;;;;;;21.50;99.90;;;;;;12547255;28;19925;-83
2023/08/11 20:18:57;;;;;;;;;;;21.40;99.90;;;;;;12558324;28;19948;-82
2023/08/11 20:24:59;;;;;;;;;;;21.50;99.90;;;;;;12588578;28;19916;-82
2023/08/11 20:31:01;;;;;;;;;;;21.50;99.90;;;;;;12591463;28;19964;-82
2023/08/11 20:37:03;;;;;;;;;;;21.50;99.90;;;;;;12577302;28;20020;-83
2023/08/11 20:43:05;;;;;;;;;;;21.60;99.90;;;;;;12527404;28;20047;-82
2023/08/11 20:49:06;;;;;;;;;;;21.60;99.90;;;;;;12545184;28;20011;-83
2023/08/11 20:55:08;;;;;;;;;;;21.60;99.90;;;;;;12564268;28;19924;-82
2023/08/11 21:01:10;;;;;;;;;;;21.50;99.90;;;;;;12562575;28;19925;-82
2023/08/11 21:07:12;;;;;;;;;;;21.50;99.90;;;;;;12531367;28;19925;-82
2023/08/11 21:13:14;;;;;;;;;;;21.50;99.90;;;;;;12529495;28;19932;-82
2023/08/11 21:19:16;;;;;;;;;;;21.30;99.90;;;;;;12539939;28;19932;-82
2023/08/11 21:25:17;;;;;;;;;;;21.30;99.90;;;;;;12527368;28;20269;-82
2023/08/11 21:31:19;;;;;;;;;;;21.10;99.90;;;;;;12552548;28;20118;-82
2023/08/11 21:37:21;;;;;;;;;;;21.20;99.90;;;;;;12526279;28;19929;-82
2023/08/11 21:43:23;;;;;;;;;;;21.30;99.90;;;;;;12524027;28;19928;-83
2023/08/11 21:49:24;;;;;;;;;;;21.30;99.90;;;;;;12545613;28;20037;-82
2023/08/11 21:55:26;;;;;;;;;;;21.30;99.90;;;;;;12551079;28;19983;-82
2023/08/11 22:01:28;;;;;;;;;;;21.30;99.90;;;;;;12557794;28;19928;-83
2023/08/11 22:07:30;;;;;;;;;;;21.30;99.90;;;;;;12534103;28;20367;-83
2023/08/11 22:13:31;;;;;;;;;;;21.20;99.90;;;;;;12560951;28;20486;-82
2023/08/11 22:19:35;;;;;;;;;;;21.20;99.90;;;;;;12535927;28;19929;-83
2023/08/11 22:25:37;;;;;;;;;;;21.20;99.90;;;;;;12557522;28;20127;-82
2023/08/11 22:31:39;;;;;;;;;;;21.20;99.90;;;;;;12548489;28;19960;-82
2023/08/11 22:37:40;;;;;;;;;;;21.30;99.90;;;;;;12546879;28;19963;-82
2023/08/11 22:43:42;;;;;;;;;;;21.30;99.90;;;;;;12560631;28;19924;-82
2023/08/11 22:49:44;;;;;;;;;;;21.30;99.90;;;;;;12556520;28;19925;-83
2023/08/11 22:55:46;;;;;;;;;;;21.30;99.90;;;;;;12575161;28;20422;-82
2023/08/11 23:01:48;;;;;;;;;;;21.20;99.90;;;;;;12545429;28;20411;-82
2023/08/11 23:07:53;;;;;;;;;;;21.20;99.90;;;;;;12550391;28;19928;-83
2023/08/11 23:13:56;;;;;;;;;;;21.10;99.90;;;;;;12544781;28;20308;-82
2023/08/11 23:19:57;;;;;;;;;;;21.00;99.90;;;;;;12536406;28;20008;-82
2023/08/11 23:25:59;;;;;;;;;;;20.90;99.90;;;;;;12555552;28;20455;-83
2023/08/11 23:32:01;;;;;;;;;;;20.80;99.90;;;;;;12538848;28;19991;-84
2023/08/11 23:38:03;;;;;;;;;;;20.80;99.90;;;;;;12555711;28;19931;-84
2023/08/11 23:44:05;;;;;;;;;;;20.70;99.90;;;;;;12536936;28;19975;-83
2023/08/11 23:50:07;;;;;;;;;;;20.70;99.90;;;;;;12553623;28;20054;-83
2023/08/11 23:56:08;;;;;;;;;;;20.60;99.90;;;;;;12545944;28;19929;-83
